EST,Max TemperatureF,Mean TemperatureF,Min TemperatureF,Max Dew PointF,MeanDew PointF,Min DewpointF,Max Humidity, Mean Humidity, Min Humidity, Max Sea Level PressureIn, Mean Sea Level PressureIn, Min Sea Level PressureIn, Max VisibilityMiles, Mean VisibilityMiles, Min VisibilityMiles, Max Wind SpeedMPH, Mean Wind SpeedMPH, Max Gust SpeedMPH,PrecipitationIn, CloudCover, Events, WindDirDegrees
2012-12-1,44,38,33,43,35,30,93,88,81,30.26,30.03,29.78,10,6,0,15,10,20,0.00,8,Rain,149
2012-12-2,44,42,39,41,37,34,93,89,81,30.06,29.92,29.76,10,6,0,8,5,,0.00,8,Fog-Rain,279
2012-12-3,50,46,41,48,42,37,94,90,81,30.06,29.84,29.60,10,4,0,16,10,22,0.00,8,Fog-Rain,168
2012-12-4,48,37,26,46,28,12,93,72,51,30.18,29.91,29.65,10,10,4,21,9,30,0.00,4,Snow,274
2012-12-5,33,28,24,27,20,16,86,73,59,30.42,30.32,30.18,10,9,1,15,8,22,0.00,7,Snow,268
2012-12-6,41,37,33,37,34,27,93,86,75,30.21,29.94,29.79,10,10,3,23,15,34,0.00,8,Rain,200
2012-12-7,37,34,30,36,27,25,93,78,70,30.02,29.95,29.81,10,10,10,9,4,,0.00,8,,310
2012-12-8,32,29,26,27,24,19,93,84,69,30.18,30.06,29.97,10,8,2,9,4,,0.00,8,Snow,321
2012-12-9,30,26,23,27,21,19,93,81,69,30.24,30.08,29.81,10,7,1,15,6,21,0.00,8,Snow,48
2012-12-10,26,22,19,21,19,18,93,83,69,29.89,29.77,29.68,10,9,2,15,7,21,0.00,8,Snow,347
2012-12-11,30,24,19,25,19,14,93,77,55,29.95,29.86,29.80,10,9,0,18,4,28,0.00,8,Snow,231
2012-12-12,42,26,10,34,19,7,87,75,63,30.20,30.11,29.97,10,10,10,22,7,30,0.00,4,Snow,221
2012-12-13,41,34,28,34,28,25,93,71,61,30.10,30.04,29.98,10,10,10,17,11,26,0.00,5,,229
2012-12-14,33,30,26,30,24,21,93,81,75,30.25,30.19,30.09,10,10,10,13,6,18,0.00,7,,18
2012-12-15,39,36,33,36,32,28,93,87,81,30.17,29.91,29.61,10,8,1,18,14,26,0.00,8,Rain-Snow,114
2012-12-16,39,37,35,37,36,34,93,93,87,29.60,29.54,29.50,10,3,0,12,7,17,0.00,8,Fog-Rain-Snow,78
2012-12-17,35,32,30,34,30,27,93,89,81,29.68,29.64,29.58,10,10,10,9,5,,0.00,8,Snow,293
2012-12-18,35,32,28,28,26,23,86,82,65,29.77,29.71,29.67,10,10,10,8,4,,0.00,8,,303
2012-12-19,37,29,21,30,25,19,93,82,70,30.06,29.95,29.78,10,10,10,12,2,17,0.00,3,,226
2012-12-20,35,32,28,30,28,25,93,88,80,30.04,29.69,29.41,10,4,0,21,8,29,0.00,8,Snow,34
2012-12-21,30,28,26,27,24,19,93,85,74,29.98,29.73,29.43,10,6,1,23,17,37,0.00,8,Snow,341
2012-12-22,28,24,17,21,20,14,86,79,69,30.04,29.97,29.85,10,10,10,20,11,31,0.00,5,,284
2012-12-23,26,22,17,21,17,14,86,81,74,30.02,29.94,29.84,10,8,2,16,8,25,0.00,8,Snow,290
2012-12-24,24,19,14,21,15,10,86,82,79,30.10,29.99,29.95,10,10,2,10,5,16,0.00,7,Snow,305
2012-12-25,24,18,10,18,15,9,92,82,74,30.41,30.29,30.11,10,10,7,9,6,,0.00,7,Snow,302
2012-12-26,24,16,8,19,16,5,92,80,74,30.38,30.26,30.16,10,10,10,15,3,20,0.00,7,Snow,21
2012-12-27,26,22,17,19,17,14,86,78,69,30.18,30.16,30.14,10,10,10,17,9,24,0.00,6,,352
2012-12-28,24,22,19,19,17,16,93,81,69,30.15,30.08,29.99,10,10,10,8,2,,0.00,8,,350
2012-12-29,26,22,17,21,18,14,93,85,74,30.02,29.95,29.90,10,10,1,6,3,,0.00,8,Snow,343
2012-12-30,24,22,21,21,17,12,93,78,64,30.15,30.06,29.92,10,10,7,14,6,18,0.00,6,Snow,243
2012-12-31,26,19,12,21,14,7,86,76,59,30.06,29.92,29.81,10,9,2,18,9,24,0.00,7,Snow,275